createdAt,value
2018-02-27T00:02:03.113Z,66.40
2018-02-27T00:04:31.432Z,66.30
2018-02-27T00:06:59.784Z,66.50
2018-02-27T00:09:28.149Z,66.40
2018-02-27T00:11:56.465Z,66.30
2018-02-27T00:14:24.810Z,66.00
2018-02-27T00:16:53.199Z,66.30
2018-02-27T00:19:21.533Z,66.40
2018-02-27T00:21:50.604Z,66.70
2018-02-27T00:24:18.952Z,66.60
2018-02-27T00:26:47.275Z,66.40
2018-02-27T00:29:15.624Z,65.70
2018-02-27T00:31:43.929Z,65.30
2018-02-27T00:34:12.238Z,64.60
2018-02-27T00:36:41.349Z,64.90
2018-02-27T00:39:10.443Z,64.70
2018-02-27T00:41:38.854Z,64.70
2018-02-27T00:44:07.185Z,64.20
2018-02-27T00:46:35.533Z,64.60
2018-02-27T00:49:04.111Z,64.70
2018-02-27T00:51:32.457Z,64.30
2018-02-27T00:54:00.846Z,64.20
2018-02-27T00:56:29.154Z,64.80
2018-02-27T00:58:57.471Z,64.80
2018-02-27T01:01:25.807Z,64.40
2018-02-27T01:03:54.126Z,64.30
2018-02-27T01:06:22.459Z,64.30
2018-02-27T01:08:50.770Z,64.50
2018-02-27T01:11:19.885Z,65.10
2018-02-27T01:13:48.199Z,65.30
2018-02-27T01:16:17.322Z,65.90
2018-02-27T01:18:45.647Z,65.90
2018-02-27T01:21:13.988Z,66.20
2018-02-27T01:23:42.319Z,66.50
2018-02-27T01:26:11.410Z,66.80
2018-02-27T01:28:39.732Z,66.90
2018-02-27T01:31:08.065Z,66.60
2018-02-27T01:33:36.406Z,66.40
2018-02-27T01:36:04.731Z,66.40
2018-02-27T01:38:33.062Z,66.80
2018-02-27T01:41:01.419Z,66.80
2018-02-27T01:43:29.732Z,66.60
2018-02-27T01:45:58.046Z,65.80
2018-02-27T01:48:26.372Z,65.90
2018-02-27T01:51:12.377Z,66.00
2018-02-27T01:53:40.708Z,66.20
2018-02-27T01:56:09.854Z,66.10
2018-02-27T01:58:38.192Z,66.10
2018-02-27T02:01:07.304Z,66.70
2018-02-27T02:03:36.415Z,66.80
2018-02-27T02:06:04.762Z,66.80
2018-02-27T02:08:33.090Z,67.00
2018-02-27T02:11:01.410Z,67.20
2018-02-27T02:13:29.756Z,66.90
2018-02-27T02:15:58.072Z,67.40
2018-02-27T02:18:26.441Z,67.40
2018-02-27T02:20:54.774Z,67.10
2018-02-27T02:23:23.100Z,67.30
2018-02-27T02:25:51.422Z,67.30
2018-02-27T02:28:20.586Z,67.20
2018-02-27T02:30:48.920Z,67.20
2018-02-27T02:33:17.243Z,67.70
2018-02-27T02:35:45.563Z,67.90
2018-02-27T02:38:14.673Z,67.80
2018-02-27T02:40:43.011Z,67.80
2018-02-27T02:43:11.335Z,67.80
2018-02-27T02:45:39.641Z,67.90
2018-02-27T02:48:07.986Z,68.00
2018-02-27T02:50:37.064Z,68.40
2018-02-27T02:53:05.376Z,68.30
2018-02-27T02:55:33.705Z,68.40
2018-02-27T02:58:02.079Z,68.40
2018-02-27T03:00:30.416Z,68.60
2018-02-27T03:02:58.760Z,68.90
2018-02-27T03:05:27.076Z,68.80
2018-02-27T03:07:55.494Z,68.80
2018-02-27T03:10:23.828Z,69.10
2018-02-27T03:12:52.958Z,69.40
2018-02-27T03:15:21.284Z,69.40
2018-02-27T03:17:49.710Z,69.30
2018-02-27T03:20:18.033Z,69.40
2018-02-27T03:22:46.400Z,69.80
2018-02-27T03:25:14.807Z,69.90
2018-02-27T03:27:43.178Z,69.70
2018-02-27T03:30:11.623Z,69.60
2018-02-27T03:32:40.008Z,69.50
2018-02-27T03:35:08.404Z,69.70
2018-02-27T03:37:36.774Z,69.40
2018-02-27T03:40:05.146Z,69.40
2018-02-27T03:42:33.548Z,69.40
2018-02-27T03:45:01.928Z,69.50
2018-02-27T03:47:30.514Z,69.50
2018-02-27T03:49:58.869Z,69.30
2018-02-27T03:52:27.223Z,69.30
2018-02-27T03:54:55.566Z,69.20
2018-02-27T03:57:23.906Z,69.40
2018-02-27T03:59:52.983Z,70.00
2018-02-27T04:02:21.300Z,70.00
2018-02-27T04:04:49.684Z,70.40
2018-02-27T04:07:18.026Z,70.30
2018-02-27T04:09:46.397Z,70.60
2018-02-27T04:12:14.710Z,71.10
2018-02-27T04:14:43.019Z,71.70
2018-02-27T04:17:11.364Z,71.70
2018-02-27T04:19:40.472Z,72.60
2018-02-27T04:22:09.804Z,73.10
2018-02-27T04:24:38.114Z,73.10
2018-02-27T04:27:07.210Z,73.40
2018-02-27T04:29:35.540Z,73.40
2018-02-27T04:32:03.873Z,74.00
2018-02-27T04:34:32.179Z,74.30
2018-02-27T04:37:01.260Z,74.90
2018-02-27T04:39:29.576Z,74.90
2018-02-27T04:41:57.897Z,75.00
2018-02-27T04:44:26.220Z,75.20
2018-02-27T04:46:55.311Z,76.00
2018-02-27T04:49:24.400Z,76.00
2018-02-27T04:51:52.712Z,75.90
2018-02-27T04:54:21.802Z,76.30
2018-02-27T04:56:50.904Z,76.60
2018-02-27T04:59:19.229Z,76.50
2018-02-27T05:01:47.544Z,77.00
2018-02-27T05:04:15.868Z,77.40
2018-02-27T05:06:44.208Z,77.60
2018-02-27T05:09:13.295Z,78.50
2018-02-27T05:11:41.642Z,78.40
2018-02-27T05:14:10.552Z,78.30
2018-02-27T05:16:38.873Z,79.00
2018-02-27T05:19:07.950Z,79.40
2018-02-27T05:21:36.278Z,79.40
2018-02-27T05:24:04.610Z,79.30
2018-02-27T05:26:32.930Z,79.20
2018-02-27T05:29:01.244Z,79.20
2018-02-27T05:31:29.544Z,79.30
2018-02-27T05:33:57.864Z,79.70
2018-02-27T05:36:26.173Z,79.50
2018-02-27T05:38:54.547Z,79.70
2018-02-27T05:41:22.863Z,79.90
2018-02-27T05:43:51.783Z,79.80
2018-02-27T05:46:20.852Z,80.20
2018-02-27T05:48:49.185Z,80.00
2018-02-27T05:51:17.518Z,80.30
2018-02-27T05:53:45.846Z,80.00
2018-02-27T05:56:14.180Z,80.10
2018-02-27T05:58:42.510Z,80.20
2018-02-27T06:01:10.832Z,80.60
2018-02-27T06:03:39.169Z,80.10
2018-02-27T06:06:07.496Z,80.80
2018-02-27T06:08:35.820Z,80.80
2018-02-27T06:11:04.906Z,80.90
2018-02-27T06:13:34.024Z,81.30
2018-02-27T06:16:02.344Z,81.20
2018-02-27T06:18:30.657Z,80.90
2018-02-27T06:20:58.976Z,81.20
2018-02-27T06:23:27.289Z,81.10
2018-02-27T06:25:55.612Z,81.00
2018-02-27T06:28:24.705Z,81.40
2018-02-27T06:30:53.813Z,82.00
2018-02-27T06:33:22.952Z,81.10
2018-02-27T06:35:51.268Z,81.10
2018-02-27T06:38:19.596Z,81.00
2018-02-27T06:40:47.982Z,81.60
2018-02-27T06:43:16.290Z,81.60
2018-02-27T06:45:44.639Z,81.80
2018-02-27T06:48:12.954Z,82.20
2018-02-27T06:50:43.546Z,82.30
2018-02-27T06:53:11.916Z,83.00
2018-02-27T06:55:41.071Z,83.20
2018-02-27T06:58:09.402Z,82.90
2018-02-27T07:00:38.524Z,82.90
2018-02-27T07:03:07.633Z,83.50
2018-02-27T07:05:35.959Z,83.40
2018-02-27T07:08:05.065Z,83.50
2018-02-27T07:10:33.395Z,83.50
2018-02-27T07:13:01.802Z,83.30
2018-02-27T07:15:30.916Z,84.20
2018-02-27T07:18:00.023Z,83.40
2018-02-27T07:20:29.090Z,83.60
2018-02-27T07:22:58.516Z,83.60
2018-02-27T07:25:27.344Z,83.50
2018-02-27T07:27:55.670Z,83.60
2018-02-27T07:30:24.038Z,83.50
2018-02-27T07:32:52.366Z,83.40
2018-02-27T07:35:20.745Z,83.10
2018-02-27T07:37:49.838Z,83.00
2018-02-27T07:40:18.184Z,83.00
2018-02-27T07:42:46.495Z,83.30
2018-02-27T07:45:15.594Z,83.80
2018-02-27T07:47:44.032Z,83.80
2018-02-27T07:50:12.483Z,83.10
2018-02-27T07:52:40.876Z,82.80
2018-02-27T07:55:09.194Z,82.50
2018-02-27T07:57:37.517Z,82.60
2018-02-27T08:00:06.686Z,82.60
2018-02-27T08:02:36.020Z,82.10
2018-02-27T08:05:04.379Z,82.10
2018-02-27T08:07:32.708Z,81.40
2018-02-27T08:10:01.865Z,81.30
2018-02-27T08:12:30.954Z,81.00
2018-02-27T08:14:59.286Z,80.90
2018-02-27T08:17:27.672Z,81.60
2018-02-27T08:19:55.994Z,80.80
2018-02-27T08:22:25.089Z,79.90
2018-02-27T08:24:53.386Z,79.90
2018-02-27T08:27:22.490Z,77.00
2018-02-27T08:29:51.560Z,73.90
2018-02-27T08:32:19.922Z,73.90
2018-02-27T08:34:48.232Z,72.30
2018-02-27T08:37:17.310Z,72.10
2018-02-27T08:39:45.618Z,72.90
2018-02-27T08:42:14.686Z,70.10
2018-02-27T08:44:43.008Z,70.10
2018-02-27T08:47:11.346Z,69.50
2018-02-27T08:49:39.703Z,68.90
2018-02-27T08:52:08.032Z,68.50
2018-02-27T08:54:37.180Z,66.90
2018-02-27T08:57:05.534Z,66.90
2018-02-27T08:59:33.856Z,66.10
2018-02-27T09:02:03.116Z,65.00
2018-02-27T09:04:32.187Z,61.00
2018-02-27T09:07:01.330Z,59.30
2018-02-27T09:09:29.696Z,59.30
2018-02-27T09:11:58.787Z,58.60
2018-02-27T09:14:27.113Z,59.10
2018-02-27T09:16:55.632Z,58.70
2018-02-27T09:19:25.349Z,58.50
2018-02-27T09:21:53.712Z,58.50
2018-02-27T09:24:22.033Z,58.40
2018-02-27T09:26:51.133Z,58.50
2018-02-27T09:29:19.446Z,58.60
2018-02-27T09:31:47.747Z,56.90
2018-02-27T09:34:16.054Z,56.60
2018-02-27T09:36:45.191Z,55.90
2018-02-27T09:39:13.526Z,55.60
2018-02-27T09:41:41.870Z,55.50
2018-02-27T09:44:10.158Z,55.80
2018-02-27T09:46:39.231Z,55.60
2018-02-27T09:49:07.525Z,55.60
2018-02-27T09:51:35.825Z,55.10
2018-02-27T09:54:04.648Z,54.70
2018-02-27T09:56:33.969Z,53.10
2018-02-27T09:59:02.272Z,53.10
2018-02-27T10:01:30.635Z,51.90
2018-02-27T10:03:58.928Z,51.10
2018-02-27T10:06:28.129Z,48.80
2018-02-27T10:08:56.458Z,48.70
2018-02-27T10:11:25.549Z,49.10
2018-02-27T10:13:54.205Z,48.90
2018-02-27T10:16:22.523Z,49.00
2018-02-27T10:18:50.817Z,48.80
2018-02-27T10:21:19.157Z,49.00
2018-02-27T10:23:48.253Z,48.80
2018-02-27T10:26:16.568Z,48.80
2018-02-27T10:28:45.676Z,50.00
2018-02-27T10:31:14.753Z,50.40
2018-02-27T10:33:43.085Z,50.40
2018-02-27T10:36:11.391Z,50.70
2018-02-27T10:38:39.702Z,51.00
2018-02-27T10:41:08.019Z,51.30
2018-02-27T10:43:36.333Z,51.10
2018-02-27T10:46:04.627Z,50.80
2018-02-27T10:48:32.927Z,49.70
2018-02-27T10:51:02.013Z,49.00
2018-02-27T10:53:30.322Z,49.00
2018-02-27T10:55:59.416Z,46.50
2018-02-27T10:58:28.483Z,46.10
2018-02-27T11:00:57.848Z,46.10
2018-02-27T11:03:26.181Z,45.50
2018-02-27T11:05:54.504Z,42.60
2018-02-27T11:08:22.811Z,43.40
2018-02-27T11:10:51.112Z,42.60
2018-02-27T11:13:19.424Z,43.40
2018-02-27T11:15:48.509Z,42.50
2018-02-27T11:18:17.613Z,41.30
2018-02-27T11:20:46.694Z,41.40
2018-02-27T11:23:15.050Z,41.40
2018-02-27T11:25:43.347Z,41.50
2018-02-27T11:28:11.645Z,39.90
2018-02-27T11:30:40.731Z,40.20
2018-02-27T11:33:09.029Z,40.00
2018-02-27T11:35:38.164Z,40.20
2018-02-27T11:38:06.454Z,40.10
2018-02-27T11:40:34.759Z,40.10
2018-02-27T11:43:03.151Z,39.80
2018-02-27T11:45:31.452Z,39.40
2018-02-27T11:48:00.524Z,39.40
2018-02-27T11:50:28.826Z,39.30
2018-02-27T11:52:57.185Z,40.00
2018-02-27T11:55:25.481Z,40.50
2018-02-27T11:57:53.803Z,40.80
2018-02-27T12:00:22.135Z,41.80
2018-02-27T12:02:50.485Z,41.20
2018-02-27T12:05:18.779Z,40.70
2018-02-27T12:07:47.069Z,40.50
2018-02-27T12:10:15.411Z,40.40
2018-02-27T12:12:43.710Z,40.20
2018-02-27T12:15:12.011Z,40.20
2018-02-27T12:17:40.307Z,39.00
2018-02-27T12:20:08.623Z,38.50
2018-02-27T12:22:36.917Z,39.40
2018-02-27T12:25:05.299Z,39.70
2018-02-27T12:27:33.620Z,39.90
2018-02-27T12:30:01.933Z,39.60
2018-02-27T12:32:30.952Z,39.70
2018-02-27T12:34:59.257Z,37.90
2018-02-27T12:37:27.607Z,39.00
2018-02-27T12:39:55.965Z,39.00
2018-02-27T12:42:25.065Z,37.50
2018-02-27T12:44:53.377Z,37.50
2018-02-27T12:47:22.564Z,37.60
2018-02-27T12:49:50.884Z,35.40
2018-02-27T12:52:19.196Z,35.40
2018-02-27T12:54:48.295Z,33.30
2018-02-27T12:57:17.576Z,34.20
2018-02-27T12:59:45.879Z,34.10
2018-02-27T13:02:14.955Z,32.90
2018-02-27T13:04:43.289Z,32.80
2018-02-27T13:07:11.607Z,32.40
2018-02-27T13:09:39.923Z,31.60
2018-02-27T13:12:09.002Z,29.30
2018-02-27T13:14:38.102Z,29.60
2018-02-27T13:17:06.439Z,29.60
2018-02-27T13:19:34.749Z,29.50
2018-02-27T13:22:03.080Z,28.90
2018-02-27T13:24:31.400Z,28.60
2018-02-27T13:26:59.719Z,28.30
2018-02-27T13:29:28.805Z,27.00
2018-02-27T13:31:57.896Z,27.30
2018-02-27T13:34:26.212Z,27.30
2018-02-27T13:36:54.621Z,27.40
2018-02-27T13:39:22.944Z,27.30
2018-02-27T13:41:51.276Z,27.90
2018-02-27T13:44:19.757Z,27.60
2018-02-27T13:46:48.073Z,27.40
2018-02-27T13:49:16.369Z,27.20
2018-02-27T13:51:44.679Z,26.40
2018-02-27T13:54:13.077Z,26.00
2018-02-27T13:56:41.385Z,25.80
2018-02-27T13:59:09.697Z,25.80
2018-02-27T14:01:38.127Z,26.00
2018-02-27T14:04:06.442Z,25.70
2018-02-27T14:06:34.755Z,25.10
2018-02-27T14:09:03.865Z,24.70
2018-02-27T14:11:32.177Z,24.70
2018-02-27T14:14:00.571Z,24.40
2018-02-27T14:16:29.021Z,24.10
2018-02-27T14:18:57.333Z,23.90
2018-02-27T14:21:25.663Z,24.00
2018-02-27T14:23:53.987Z,23.70
2018-02-27T14:26:22.327Z,22.60
2018-02-27T14:28:51.413Z,23.40
2018-02-27T14:31:20.493Z,23.70
2018-02-27T14:33:49.581Z,23.70
2018-02-27T14:36:17.875Z,23.30
2018-02-27T14:38:46.313Z,23.70
2018-02-27T14:41:14.623Z,23.70
2018-02-27T14:43:42.963Z,23.70
2018-02-27T14:46:11.269Z,23.10
2018-02-27T14:48:39.571Z,23.50
2018-02-27T14:51:07.893Z,23.40
2018-02-27T14:53:36.213Z,23.50
2018-02-27T14:56:04.581Z,23.30
2018-02-27T14:58:32.904Z,23.50
2018-02-27T15:01:01.242Z,23.40
2018-02-27T15:03:29.553Z,23.50
2018-02-27T15:05:57.911Z,23.30
2018-02-27T15:08:26.263Z,23.30
2018-02-27T15:10:54.598Z,23.30
2018-02-27T15:13:22.929Z,22.50
2018-02-27T15:15:51.287Z,21.70
2018-02-27T15:18:20.381Z,22.90
2018-02-27T15:20:49.454Z,23.40
2018-02-27T15:23:17.776Z,23.40
2018-02-27T15:25:46.126Z,23.80
2018-02-27T15:28:14.443Z,23.30
2018-02-27T15:30:42.749Z,23.30
2018-02-27T15:33:11.121Z,23.90
2018-02-27T15:35:39.456Z,24.20
2018-02-27T15:38:10.532Z,26.00
2018-02-27T15:40:38.977Z,25.50
2018-02-27T15:43:07.363Z,26.10
2018-02-27T15:45:35.689Z,27.10
2018-02-27T15:48:04.044Z,27.60
2018-02-27T15:50:33.248Z,27.60
2018-02-27T15:53:02.333Z,27.80
2018-02-27T15:55:31.465Z,27.10
2018-02-27T15:57:59.862Z,27.00
2018-02-27T16:00:28.163Z,27.20
2018-02-27T16:02:56.479Z,28.00
2018-02-27T16:05:25.589Z,28.40
2018-02-27T16:07:54.711Z,28.70
2018-02-27T16:10:23.104Z,28.60
2018-02-27T16:12:51.436Z,28.80
2018-02-27T16:15:20.540Z,28.90
2018-02-27T16:17:49.652Z,28.80
2018-02-27T16:20:18.349Z,28.80
2018-02-27T16:22:46.682Z,28.70
2018-02-27T16:25:14.993Z,29.30
2018-02-27T16:27:44.221Z,30.00
2018-02-27T16:30:13.253Z,30.00
2018-02-27T16:32:41.561Z,30.00
2018-02-27T16:35:10.635Z,31.10
2018-02-27T16:37:39.059Z,31.20
2018-02-27T16:40:08.266Z,32.40
2018-02-27T16:42:36.598Z,33.10
2018-02-27T16:45:04.930Z,34.30
2018-02-27T16:47:33.345Z,35.00
2018-02-27T16:50:01.637Z,35.70
2018-02-27T16:52:29.951Z,36.50
2018-02-27T16:54:59.024Z,39.20
2018-02-27T16:57:28.307Z,40.30
2018-02-27T16:59:56.912Z,40.70
2018-02-27T17:02:26.046Z,44.50
2018-02-27T17:04:54.372Z,44.50
2018-02-27T17:07:22.687Z,44.80
2018-02-27T17:09:51.765Z,47.50
2018-02-27T17:12:20.111Z,47.60
2018-02-27T17:14:49.164Z,49.50
2018-02-27T17:17:18.277Z,51.00
2018-02-27T17:19:46.589Z,50.90
2018-02-27T17:22:14.913Z,52.90
2018-02-27T17:24:43.269Z,53.60
2018-02-27T17:27:11.586Z,57.70
2018-02-27T17:29:40.728Z,58.90
2018-02-27T17:32:09.106Z,58.80
2018-02-27T17:34:37.415Z,61.50
2018-02-27T17:37:05.755Z,62.70
2018-02-27T17:39:34.081Z,62.60
2018-02-27T17:42:02.403Z,63.10
2018-02-27T17:44:30.739Z,64.90
2018-02-27T17:46:59.069Z,65.50
2018-02-27T17:49:27.413Z,65.90
2018-02-27T17:51:55.750Z,66.60
2018-02-27T17:54:24.848Z,66.60
2018-02-27T17:56:53.187Z,66.00
2018-02-27T17:59:22.321Z,67.50
2018-02-27T18:01:50.650Z,67.40
2018-02-27T18:04:19.021Z,68.00
2018-02-27T18:06:47.385Z,68.80
2018-02-27T18:09:15.738Z,70.00
2018-02-27T18:11:44.053Z,70.20
2018-02-27T18:14:12.389Z,70.00
2018-02-27T18:16:40.729Z,72.30
2018-02-27T18:19:09.045Z,71.60
2018-02-27T18:21:38.138Z,72.20
2018-02-27T18:24:06.457Z,72.20
2018-02-27T18:26:34.945Z,72.30
2018-02-27T18:29:03.282Z,72.90
2018-02-27T18:31:32.393Z,73.40
2018-02-27T18:34:00.721Z,73.20
2018-02-27T18:36:29.872Z,75.40
2018-02-27T18:38:58.187Z,75.30
2018-02-27T18:41:26.512Z,75.70
2018-02-27T18:43:54.907Z,75.60
2018-02-27T18:46:23.196Z,76.30
2018-02-27T18:48:51.517Z,76.40
2018-02-27T18:51:19.879Z,76.40
2018-02-27T18:53:48.251Z,75.80
2018-02-27T18:56:16.602Z,75.90
2018-02-27T18:58:45.715Z,76.60
2018-02-27T19:01:14.814Z,77.00
2018-02-27T19:03:43.903Z,77.10
2018-02-27T19:06:13.006Z,76.80
2018-02-27T19:08:42.094Z,76.50
2018-02-27T19:11:11.206Z,76.40
2018-02-27T19:13:39.516Z,76.20
2018-02-27T19:16:08.046Z,76.20
2018-02-27T19:18:36.350Z,76.40
2018-02-27T19:21:05.423Z,76.10
2018-02-27T19:23:33.766Z,76.10
2018-02-27T19:26:02.106Z,76.40
2018-02-27T19:28:31.204Z,76.50
2018-02-27T19:30:59.513Z,76.40
2018-02-27T19:33:27.855Z,76.60
2018-02-27T19:35:56.983Z,78.00
2018-02-27T19:38:25.293Z,77.10
2018-02-27T19:40:53.606Z,77.70
2018-02-27T19:43:21.933Z,77.80
2018-02-27T19:45:50.321Z,77.10
2018-02-27T19:48:18.839Z,77.90
2018-02-27T19:50:47.470Z,78.20
2018-02-27T19:53:15.858Z,78.50
2018-02-27T19:55:44.333Z,78.80
2018-02-27T19:58:13.447Z,79.00
2018-02-27T20:00:42.525Z,79.30
2018-02-27T20:03:11.726Z,79.30
2018-02-27T20:05:41.497Z,79.30
2018-02-27T20:08:09.845Z,79.30
2018-02-27T20:10:38.187Z,79.70
2018-02-27T20:13:06.624Z,79.50
2018-02-27T20:15:34.934Z,80.00
2018-02-27T20:18:08.835Z,80.00
2018-02-27T20:20:37.214Z,80.70
2018-02-27T20:23:11.114Z,80.60
2018-02-27T20:25:39.443Z,80.80
2018-02-27T20:31:12.844Z,81.60
2018-02-27T20:33:41.180Z,82.00
2018-02-27T20:36:09.526Z,81.90
2018-02-27T20:38:43.361Z,82.10
2018-02-27T20:41:11.681Z,82.90
2018-02-27T20:43:40.043Z,82.90
2018-02-27T20:46:09.167Z,83.10
2018-02-27T20:48:38.265Z,83.30
2018-02-27T20:51:06.576Z,83.20
2018-02-27T20:53:34.955Z,83.80
2018-02-27T20:56:03.274Z,83.50
2018-02-27T20:58:31.592Z,84.10
2018-02-27T21:00:59.943Z,84.10
2018-02-27T21:03:28.274Z,84.50
2018-02-27T21:05:56.597Z,84.60
2018-02-27T21:08:24.935Z,84.10
2018-02-27T21:10:53.260Z,84.60
2018-02-27T21:13:21.601Z,84.70
2018-02-27T21:15:49.924Z,84.60
2018-02-27T21:18:18.272Z,84.80
2018-02-27T21:20:46.618Z,85.00
2018-02-27T21:23:15.700Z,84.90
2018-02-27T21:25:44.018Z,84.90
2018-02-27T21:28:12.352Z,85.00
2018-02-27T21:30:40.672Z,84.60
2018-02-27T21:33:09.000Z,84.80
2018-02-27T21:35:37.353Z,85.20
2018-02-27T21:38:05.662Z,84.80
2018-02-27T21:40:33.989Z,84.50
2018-02-27T21:43:02.310Z,85.30
2018-02-27T21:48:05.842Z,84.80
2018-02-27T21:50:34.249Z,84.70
2018-02-27T21:53:03.360Z,84.40
2018-02-27T21:55:31.735Z,84.30
2018-02-27T21:58:00.038Z,84.20
2018-02-27T22:00:29.752Z,84.60
2018-02-27T22:02:58.239Z,84.50
2018-02-27T22:05:26.567Z,84.40
2018-02-27T22:07:54.946Z,84.30
2018-02-27T22:10:23.268Z,84.30
2018-02-27T22:12:51.603Z,84.30
2018-02-27T22:15:19.944Z,84.20
2018-02-27T22:17:48.264Z,84.10
2018-02-27T22:20:16.607Z,84.10
2018-02-27T22:22:44.921Z,83.90
2018-02-27T22:25:13.404Z,83.80
2018-02-27T22:27:41.702Z,84.10
2018-02-27T22:30:10.054Z,84.10
2018-02-27T22:32:38.350Z,84.90
2018-02-27T22:35:06.682Z,84.40
2018-02-27T22:37:35.010Z,84.30
2018-02-27T22:40:03.733Z,84.40
2018-02-27T22:42:32.816Z,84.40
2018-02-27T22:45:01.188Z,84.30
2018-02-27T22:47:29.519Z,84.10
2018-02-27T22:49:57.914Z,84.20
2018-02-27T22:52:26.306Z,84.50
2018-02-27T22:54:54.634Z,84.60
2018-02-27T22:57:22.970Z,84.30
2018-02-27T22:59:51.286Z,84.80
2018-02-27T23:02:20.370Z,84.80
2018-02-27T23:04:48.707Z,84.80
2018-02-27T23:07:17.020Z,84.90
2018-02-27T23:09:45.338Z,85.40
2018-02-27T23:12:15.310Z,85.80
2018-02-27T23:14:43.647Z,85.80
2018-02-27T23:17:15.345Z,85.70
2018-02-27T23:19:43.659Z,86.40
2018-02-27T23:22:11.978Z,85.70
2018-02-27T23:24:42.505Z,85.40
2018-02-27T23:27:11.832Z,84.70
2018-02-27T23:29:40.321Z,85.10
2018-02-27T23:32:09.560Z,84.90
2018-02-27T23:34:42.430Z,85.10
2018-02-27T23:37:10.762Z,85.00
2018-02-27T23:39:39.088Z,85.50
2018-02-27T23:42:07.393Z,85.50
2018-02-27T23:44:35.733Z,86.00
2018-02-27T23:47:04.070Z,86.20
2018-02-27T23:49:32.408Z,85.90
2018-02-27T23:52:00.743Z,85.90
2018-02-27T23:54:29.048Z,85.90
2018-02-27T23:56:57.362Z,86.00
2018-02-27T23:59:25.733Z,86.00
